sensor_id;sensor_type;location;lat;lon;timestamp;temperature;humidity
8172;DHT22;4127;47.908;10.850;2023-09-19T00:00:22;15.30;99.90
8172;DHT22;4127;47.908;10.850;2023-09-19T00:02:55;15.30;99.90
8172;DHT22;4127;47.908;10.850;2023-09-19T00:05:27;15.20;99.90
8172;DHT22;4127;47.908;10.850;2023-09-19T00:07:56;15.20;99.90
8172;DHT22;4127;47.908;10.850;2023-09-19T00:10:26;15.20;99.90
8172;DHT22;4127;47.908;10.850;2023-09-19T00:12:54;15.20;99.90
8172;DHT22;4127;47.908;10.850;2023-09-19T00:15:26;15.20;99.90
8172;DHT22;4127;47.908;10.850;2023-09-19T00:17:56;15.30;99.90
8172;DHT22;4127;47.908;10.850;2023-09-19T00:20:23;15.30;99.90
8172;DHT22;4127;47.908;10.850;2023-09-19T00:22:51;15.20;99.90
8172;DHT22;4127;47.908;10.850;2023-09-19T00:25:21;15.30;99.90
8172;DHT22;4127;47.908;10.850;2023-09-19T00:27:48;15.20;99.90
8172;DHT22;4127;47.908;10.850;2023-09-19T00:30:17;15.20;99.90
8172;DHT22;4127;47.908;10.850;2023-09-19T00:32:48;15.30;99.90
8172;DHT22;4127;47.908;10.850;2023-09-19T00:35:16;15.30;99.90
8172;DHT22;4127;47.908;10.850;2023-09-19T00:37:43;15.40;99.90
8172;DHT22;4127;47.908;10.850;2023-09-19T00:40:10;15.40;99.90
8172;DHT22;4127;47.908;10.850;2023-09-19T00:42:43;15.50;99.90
8172;DHT22;4127;47.908;10.850;2023-09-19T00:45:12;15.60;99.90
8172;DHT22;4127;47.908;10.850;2023-09-19T00:47:47;15.60;99.90
8172;DHT22;4127;47.908;10.850;2023-09-19T00:50:21;15.70;99.90
8172;DHT22;4127;47.908;10.850;2023-09-19T00:52:50;15.70;99.90
8172;DHT22;4127;47.908;10.850;2023-09-19T00:55:19;15.70;99.90
8172;DHT22;4127;47.908;10.850;2023-09-19T00:57:47;15.60;99.90
8172;DHT22;4127;47.908;10.850;2023-09-19T01:00:17;15.60;99.90
8172;DHT22;4127;47.908;10.850;2023-09-19T01:02:47;15.60;99.90
8172;DHT22;4127;47.908;10.850;2023-09-19T01:05:15;15.60;99.90
8172;DHT22;4127;47.908;10.850;2023-09-19T01:07:42;15.50;99.90
8172;DHT22;4127;47.908;10.850;2023-09-19T01:10:17;15.60;99.90
8172;DHT22;4127;47.908;10.850;2023-09-19T01:15:28;15.50;99.90
8172;DHT22;4127;47.908;10.850;2023-09-19T01:27:25;15.40;99.90
8172;DHT22;4127;47.908;10.850;2023-09-19T01:30:13;15.40;99.90
8172;DHT22;4127;47.908;10.850;2023-09-19T01:32:41;15.30;99.90
8172;DHT22;4127;47.908;10.850;2023-09-19T01:35:10;15.30;99.90
8172;DHT22;4127;47.908;10.850;2023-09-19T01:37:39;15.30;99.90
8172;DHT22;4127;47.908;10.850;2023-09-19T01:40:13;15.20;99.90
8172;DHT22;4127;47.908;10.850;2023-09-19T01:45:54;15.10;99.90
8172;DHT22;4127;47.908;10.850;2023-09-19T01:51:06;15.10;99.90
8172;DHT22;4127;47.908;10.850;2023-09-19T01:53:47;15.10;99.90
8172;DHT22;4127;47.908;10.850;2023-09-19T01:56:28;15.10;99.90
8172;DHT22;4127;47.908;10.850;2023-09-19T01:59:07;15.20;99.90
8172;DHT22;4127;47.908;10.850;2023-09-19T02:01:37;15.20;99.90
8172;DHT22;4127;47.908;10.850;2023-09-19T02:04:05;15.20;99.90
8172;DHT22;4127;47.908;10.850;2023-09-19T02:06:32;15.20;99.90
8172;DHT22;4127;47.908;10.850;2023-09-19T02:09:00;15.30;99.90
8172;DHT22;4127;47.908;10.850;2023-09-19T02:11:27;15.30;99.90
8172;DHT22;4127;47.908;10.850;2023-09-19T02:13:55;15.30;99.90
8172;DHT22;4127;47.908;10.850;2023-09-19T02:16:22;15.30;99.90
8172;DHT22;4127;47.908;10.850;2023-09-19T02:18:49;15.30;99.90
8172;DHT22;4127;47.908;10.850;2023-09-19T02:21:17;15.20;99.90
8172;DHT22;4127;47.908;10.850;2023-09-19T02:23:45;15.30;99.90
8172;DHT22;4127;47.908;10.850;2023-09-19T02:26:14;15.20;99.90
8172;DHT22;4127;47.908;10.850;2023-09-19T02:28:41;15.20;99.90
8172;DHT22;4127;47.908;10.850;2023-09-19T02:31:08;15.20;99.90
8172;DHT22;4127;47.908;10.850;2023-09-19T02:33:35;15.20;99.90
8172;DHT22;4127;47.908;10.850;2023-09-19T02:36:02;15.20;99.90
8172;DHT22;4127;47.908;10.850;2023-09-19T02:38:30;15.20;99.90
8172;DHT22;4127;47.908;10.850;2023-09-19T02:40:57;15.20;99.90
8172;DHT22;4127;47.908;10.850;2023-09-19T02:43:24;15.20;99.90
8172;DHT22;4127;47.908;10.850;2023-09-19T02:45:52;15.20;99.90
8172;DHT22;4127;47.908;10.850;2023-09-19T02:48:21;15.20;99.90
8172;DHT22;4127;47.908;10.850;2023-09-19T02:50:52;15.20;99.90
8172;DHT22;4127;47.908;10.850;2023-09-19T02:53:19;15.20;99.90
8172;DHT22;4127;47.908;10.850;2023-09-19T02:55:46;15.10;99.90
8172;DHT22;4127;47.908;10.850;2023-09-19T02:58:14;15.10;99.90
8172;DHT22;4127;47.908;10.850;2023-09-19T03:00:42;15.00;99.90
8172;DHT22;4127;47.908;10.850;2023-09-19T03:03:09;15.00;99.90
8172;DHT22;4127;47.908;10.850;2023-09-19T03:05:36;15.00;99.90
8172;DHT22;4127;47.908;10.850;2023-09-19T03:08:05;15.00;99.90
8172;DHT22;4127;47.908;10.850;2023-09-19T03:10:33;15.00;99.90
8172;DHT22;4127;47.908;10.850;2023-09-19T03:13:00;15.00;99.90
8172;DHT22;4127;47.908;10.850;2023-09-19T03:15:27;15.10;99.90
8172;DHT22;4127;47.908;10.850;2023-09-19T03:17:54;15.00;99.90
8172;DHT22;4127;47.908;10.850;2023-09-19T03:20:21;15.00;99.90
8172;DHT22;4127;47.908;10.850;2023-09-19T03:22:49;15.00;99.90
8172;DHT22;4127;47.908;10.850;2023-09-19T03:25:16;15.00;99.90
8172;DHT22;4127;47.908;10.850;2023-09-19T03:27:44;15.00;99.90
8172;DHT22;4127;47.908;10.850;2023-09-19T03:30:11;15.00;99.90
8172;DHT22;4127;47.908;10.850;2023-09-19T03:32:47;15.00;99.90
8172;DHT22;4127;47.908;10.850;2023-09-19T03:35:17;15.00;99.90
8172;DHT22;4127;47.908;10.850;2023-09-19T03:37:45;15.00;99.90
8172;DHT22;4127;47.908;10.850;2023-09-19T03:40:12;15.00;99.90
8172;DHT22;4127;47.908;10.850;2023-09-19T03:42:40;15.00;99.90
8172;DHT22;4127;47.908;10.850;2023-09-19T03:45:08;15.00;99.90
8172;DHT22;4127;47.908;10.850;2023-09-19T03:47:43;15.00;99.90
8172;DHT22;4127;47.908;10.850;2023-09-19T03:50:10;15.00;99.90
8172;DHT22;4127;47.908;10.850;2023-09-19T03:52:45;15.00;99.90
8172;DHT22;4127;47.908;10.850;2023-09-19T03:55:12;14.90;99.90
8172;DHT22;4127;47.908;10.850;2023-09-19T03:57:39;14.80;99.90
8172;DHT22;4127;47.908;10.850;2023-09-19T04:00:06;14.90;99.90
8172;DHT22;4127;47.908;10.850;2023-09-19T04:02:39;14.90;99.90
8172;DHT22;4127;47.908;10.850;2023-09-19T04:05:07;14.90;99.90
8172;DHT22;4127;47.908;10.850;2023-09-19T04:07:34;14.90;99.90
8172;DHT22;4127;47.908;10.850;2023-09-19T04:10:01;15.00;99.90
8172;DHT22;4127;47.908;10.850;2023-09-19T04:12:29;15.00;99.90
8172;DHT22;4127;47.908;10.850;2023-09-19T04:14:56;15.00;99.90
8172;DHT22;4127;47.908;10.850;2023-09-19T04:17:23;15.00;99.90
8172;DHT22;4127;47.908;10.850;2023-09-19T04:19:50;14.90;99.90
8172;DHT22;4127;47.908;10.850;2023-09-19T04:22:17;14.90;99.90
8172;DHT22;4127;47.908;10.850;2023-09-19T04:24:44;14.90;99.90
8172;DHT22;4127;47.908;10.850;2023-09-19T04:27:11;14.90;99.90
8172;DHT22;4127;47.908;10.850;2023-09-19T04:29:41;14.90;99.90
8172;DHT22;4127;47.908;10.850;2023-09-19T04:32:09;14.90;99.90
8172;DHT22;4127;47.908;10.850;2023-09-19T04:34:36;14.90;99.90
8172;DHT22;4127;47.908;10.850;2023-09-19T04:37:06;14.90;99.90
8172;DHT22;4127;47.908;10.850;2023-09-19T04:39:33;14.80;99.90
8172;DHT22;4127;47.908;10.850;2023-09-19T04:42:01;14.90;99.90
8172;DHT22;4127;47.908;10.850;2023-09-19T04:44:27;14.90;99.90
8172;DHT22;4127;47.908;10.850;2023-09-19T04:46:54;14.80;99.90
8172;DHT22;4127;47.908;10.850;2023-09-19T04:49:22;14.80;99.90
8172;DHT22;4127;47.908;10.850;2023-09-19T04:51:49;14.70;99.90
8172;DHT22;4127;47.908;10.850;2023-09-19T04:54:16;14.70;99.90
8172;DHT22;4127;47.908;10.850;2023-09-19T04:56:45;14.70;99.90
8172;DHT22;4127;47.908;10.850;2023-09-19T04:59:11;14.70;99.90
8172;DHT22;4127;47.908;10.850;2023-09-19T05:01:38;14.60;99.90
8172;DHT22;4127;47.908;10.850;2023-09-19T05:04:06;14.70;99.90
8172;DHT22;4127;47.908;10.850;2023-09-19T05:06:32;14.70;99.90
8172;DHT22;4127;47.908;10.850;2023-09-19T05:09:02;14.80;99.90
8172;DHT22;4127;47.908;10.850;2023-09-19T05:11:31;14.80;99.90
8172;DHT22;4127;47.908;10.850;2023-09-19T05:13:58;14.90;99.90
8172;DHT22;4127;47.908;10.850;2023-09-19T05:16:30;14.80;99.90
8172;DHT22;4127;47.908;10.850;2023-09-19T05:19:01;14.90;99.90
8172;DHT22;4127;47.908;10.850;2023-09-19T05:21:28;14.90;99.90
8172;DHT22;4127;47.908;10.850;2023-09-19T05:23:57;14.80;99.90
8172;DHT22;4127;47.908;10.850;2023-09-19T05:26:24;14.80;99.90
8172;DHT22;4127;47.908;10.850;2023-09-19T05:28:51;14.80;99.90
8172;DHT22;4127;47.908;10.850;2023-09-19T05:31:19;14.80;99.90
8172;DHT22;4127;47.908;10.850;2023-09-19T05:33:47;14.80;99.90
8172;DHT22;4127;47.908;10.850;2023-09-19T05:36:14;14.80;99.90
8172;DHT22;4127;47.908;10.850;2023-09-19T05:38:43;14.80;99.90
8172;DHT22;4127;47.908;10.850;2023-09-19T05:41:11;14.80;99.90
8172;DHT22;4127;47.908;10.850;2023-09-19T05:43:40;14.80;99.90
8172;DHT22;4127;47.908;10.850;2023-09-19T05:46:08;14.80;99.90
8172;DHT22;4127;47.908;10.850;2023-09-19T05:48:35;14.90;99.90
8172;DHT22;4127;47.908;10.850;2023-09-19T05:51:02;15.00;99.90
8172;DHT22;4127;47.908;10.850;2023-09-19T05:53:29;15.00;99.90
8172;DHT22;4127;47.908;10.850;2023-09-19T05:55:56;15.10;99.90
8172;DHT22;4127;47.908;10.850;2023-09-19T05:58:23;15.10;99.90
8172;DHT22;4127;47.908;10.850;2023-09-19T06:00:50;15.10;99.90
8172;DHT22;4127;47.908;10.850;2023-09-19T06:03:18;15.10;99.90
8172;DHT22;4127;47.908;10.850;2023-09-19T06:05:47;15.20;99.90
8172;DHT22;4127;47.908;10.850;2023-09-19T06:08:16;15.20;99.90
8172;DHT22;4127;47.908;10.850;2023-09-19T06:10:43;15.30;99.90
8172;DHT22;4127;47.908;10.850;2023-09-19T06:13:10;15.40;99.90
8172;DHT22;4127;47.908;10.850;2023-09-19T06:15:37;15.40;99.90
8172;DHT22;4127;47.908;10.850;2023-09-19T06:18:04;15.50;99.90
8172;DHT22;4127;47.908;10.850;2023-09-19T06:20:32;15.50;99.90
8172;DHT22;4127;47.908;10.850;2023-09-19T06:23:00;15.60;99.90
8172;DHT22;4127;47.908;10.850;2023-09-19T06:25:29;15.60;99.90
8172;DHT22;4127;47.908;10.850;2023-09-19T06:27:56;15.60;99.90
8172;DHT22;4127;47.908;10.850;2023-09-19T06:30:24;15.60;99.90
8172;DHT22;4127;47.908;10.850;2023-09-19T06:32:59;15.60;99.90
8172;DHT22;4127;47.908;10.850;2023-09-19T06:35:28;15.70;99.90
8172;DHT22;4127;47.908;10.850;2023-09-19T06:37:56;15.80;99.90
8172;DHT22;4127;47.908;10.850;2023-09-19T06:40:25;15.80;99.90
8172;DHT22;4127;47.908;10.850;2023-09-19T06:42:53;15.90;99.90
8172;DHT22;4127;47.908;10.850;2023-09-19T06:45:20;15.90;99.90
8172;DHT22;4127;47.908;10.850;2023-09-19T06:47:51;15.90;99.90
8172;DHT22;4127;47.908;10.850;2023-09-19T06:50:20;15.90;99.90
8172;DHT22;4127;47.908;10.850;2023-09-19T06:52:50;16.00;99.90
8172;DHT22;4127;47.908;10.850;2023-09-19T06:55:19;16.00;99.90
8172;DHT22;4127;47.908;10.850;2023-09-19T06:57:47;16.00;99.90
8172;DHT22;4127;47.908;10.850;2023-09-19T07:00:15;16.10;99.90
8172;DHT22;4127;47.908;10.850;2023-09-19T07:02:54;16.20;99.90
8172;DHT22;4127;47.908;10.850;2023-09-19T07:05:21;16.20;99.90
8172;DHT22;4127;47.908;10.850;2023-09-19T07:07:48;16.20;99.90
8172;DHT22;4127;47.908;10.850;2023-09-19T07:10:16;16.30;99.90
8172;DHT22;4127;47.908;10.850;2023-09-19T07:12:45;16.30;99.90
8172;DHT22;4127;47.908;10.850;2023-09-19T07:15:12;16.30;99.90
8172;DHT22;4127;47.908;10.850;2023-09-19T07:17:38;16.40;99.90
8172;DHT22;4127;47.908;10.850;2023-09-19T07:20:06;16.40;99.90
8172;DHT22;4127;47.908;10.850;2023-09-19T07:22:34;16.50;99.90
8172;DHT22;4127;47.908;10.850;2023-09-19T07:25:03;16.50;99.90
8172;DHT22;4127;47.908;10.850;2023-09-19T07:27:30;16.50;99.90
8172;DHT22;4127;47.908;10.850;2023-09-19T07:29:57;16.50;99.90
8172;DHT22;4127;47.908;10.850;2023-09-19T07:32:23;16.50;99.90
8172;DHT22;4127;47.908;10.850;2023-09-19T07:34:51;16.70;99.90
8172;DHT22;4127;47.908;10.850;2023-09-19T07:37:18;16.80;99.90
8172;DHT22;4127;47.908;10.850;2023-09-19T07:39:45;16.90;99.90
8172;DHT22;4127;47.908;10.850;2023-09-19T07:42:12;17.00;99.90
8172;DHT22;4127;47.908;10.850;2023-09-19T07:44:44;17.10;99.90
8172;DHT22;4127;47.908;10.850;2023-09-19T07:47:17;17.20;99.90
8172;DHT22;4127;47.908;10.850;2023-09-19T07:49:46;17.20;99.90
8172;DHT22;4127;47.908;10.850;2023-09-19T07:52:14;17.20;99.90
8172;DHT22;4127;47.908;10.850;2023-09-19T07:54:42;17.20;99.90
8172;DHT22;4127;47.908;10.850;2023-09-19T07:57:11;17.30;99.90
8172;DHT22;4127;47.908;10.850;2023-09-19T07:59:38;17.40;99.90
8172;DHT22;4127;47.908;10.850;2023-09-19T08:02:05;17.60;99.90
8172;DHT22;4127;47.908;10.850;2023-09-19T08:04:35;17.80;99.90
8172;DHT22;4127;47.908;10.850;2023-09-19T08:07:03;17.70;99.90
8172;DHT22;4127;47.908;10.850;2023-09-19T08:09:31;17.60;99.90
8172;DHT22;4127;47.908;10.850;2023-09-19T08:12:00;17.60;99.90
8172;DHT22;4127;47.908;10.850;2023-09-19T08:14:32;17.80;99.90
8172;DHT22;4127;47.908;10.850;2023-09-19T08:16:59;17.90;99.90
8172;DHT22;4127;47.908;10.850;2023-09-19T08:19:27;18.00;99.90
8172;DHT22;4127;47.908;10.850;2023-09-19T08:21:58;18.10;99.90
8172;DHT22;4127;47.908;10.850;2023-09-19T08:24:27;18.20;99.90
8172;DHT22;4127;47.908;10.850;2023-09-19T08:26:55;18.30;99.90
8172;DHT22;4127;47.908;10.850;2023-09-19T08:29:24;18.50;99.90
8172;DHT22;4127;47.908;10.850;2023-09-19T08:31:55;18.50;99.90
8172;DHT22;4127;47.908;10.850;2023-09-19T08:34:23;18.50;99.90
8172;DHT22;4127;47.908;10.850;2023-09-19T08:36:54;18.50;99.90
8172;DHT22;4127;47.908;10.850;2023-09-19T08:39:25;18.50;99.90
8172;DHT22;4127;47.908;10.850;2023-09-19T08:41:59;18.50;99.90
8172;DHT22;4127;47.908;10.850;2023-09-19T08:44:27;18.60;99.90
8172;DHT22;4127;47.908;10.850;2023-09-19T08:47:26;18.60;99.90
8172;DHT22;4127;47.908;10.850;2023-09-19T08:50:07;18.70;99.90
8172;DHT22;4127;47.908;10.850;2023-09-19T08:52:44;18.70;99.90
8172;DHT22;4127;47.908;10.850;2023-09-19T08:55:16;18.90;99.90
8172;DHT22;4127;47.908;10.850;2023-09-19T08:57:49;18.90;99.90
8172;DHT22;4127;47.908;10.850;2023-09-19T09:00:18;18.70;99.90
8172;DHT22;4127;47.908;10.850;2023-09-19T09:02:48;18.70;99.90
8172;DHT22;4127;47.908;10.850;2023-09-19T09:05:16;18.70;99.90
8172;DHT22;4127;47.908;10.850;2023-09-19T09:07:50;18.50;99.90
8172;DHT22;4127;47.908;10.850;2023-09-19T09:10:24;18.50;99.90
8172;DHT22;4127;47.908;10.850;2023-09-19T09:12:52;18.30;99.90
8172;DHT22;4127;47.908;10.850;2023-09-19T09:15:23;18.40;99.90
8172;DHT22;4127;47.908;10.850;2023-09-19T09:17:51;18.60;99.90
8172;DHT22;4127;47.908;10.850;2023-09-19T09:20:20;18.80;99.90
8172;DHT22;4127;47.908;10.850;2023-09-19T09:22:54;18.70;99.90
8172;DHT22;4127;47.908;10.850;2023-09-19T09:25:22;18.80;99.90
8172;DHT22;4127;47.908;10.850;2023-09-19T09:28:00;18.80;99.90
8172;DHT22;4127;47.908;10.850;2023-09-19T09:30:37;19.10;99.90
8172;DHT22;4127;47.908;10.850;2023-09-19T09:33:12;19.30;99.90
8172;DHT22;4127;47.908;10.850;2023-09-19T09:35:52;19.50;99.90
8172;DHT22;4127;47.908;10.850;2023-09-19T09:38:21;19.80;99.90
8172;DHT22;4127;47.908;10.850;2023-09-19T09:40:55;19.80;99.90
8172;DHT22;4127;47.908;10.850;2023-09-19T09:43:32;19.80;99.90
8172;DHT22;4127;47.908;10.850;2023-09-19T09:46:17;19.70;99.90
8172;DHT22;4127;47.908;10.850;2023-09-19T09:49:03;19.40;99.90
8172;DHT22;4127;47.908;10.850;2023-09-19T09:51:49;19.50;99.90
8172;DHT22;4127;47.908;10.850;2023-09-19T09:54:29;19.60;99.90
8172;DHT22;4127;47.908;10.850;2023-09-19T09:57:10;19.50;99.90
8172;DHT22;4127;47.908;10.850;2023-09-19T10:02:18;19.20;99.90
8172;DHT22;4127;47.908;10.850;2023-09-19T10:04:52;19.40;99.90
8172;DHT22;4127;47.908;10.850;2023-09-19T10:07:30;19.50;99.90
8172;DHT22;4127;47.908;10.850;2023-09-19T10:10:03;19.50;99.90
8172;DHT22;4127;47.908;10.850;2023-09-19T10:12:45;19.60;99.90
8172;DHT22;4127;47.908;10.850;2023-09-19T10:15:17;20.10;99.90
8172;DHT22;4127;47.908;10.850;2023-09-19T10:17:48;20.20;99.90
8172;DHT22;4127;47.908;10.850;2023-09-19T10:20:16;20.20;99.90
8172;DHT22;4127;47.908;10.850;2023-09-19T10:23:11;20.40;99.90
8172;DHT22;4127;47.908;10.850;2023-09-19T10:25:43;20.50;99.90
8172;DHT22;4127;47.908;10.850;2023-09-19T10:28:12;20.50;99.90
8172;DHT22;4127;47.908;10.850;2023-09-19T10:30:48;20.30;99.90
8172;DHT22;4127;47.908;10.850;2023-09-19T10:33:19;20.10;99.90
8172;DHT22;4127;47.908;10.850;2023-09-19T10:35:51;20.30;99.90
8172;DHT22;4127;47.908;10.850;2023-09-19T10:38:19;20.40;99.90
8172;DHT22;4127;47.908;10.850;2023-09-19T10:40:57;20.50;99.90
8172;DHT22;4127;47.908;10.850;2023-09-19T10:43:32;20.90;99.90
8172;DHT22;4127;47.908;10.850;2023-09-19T10:46:06;21.00;99.70
8172;DHT22;4127;47.908;10.850;2023-09-19T10:48:34;20.70;99.40
8172;DHT22;4127;47.908;10.850;2023-09-19T10:51:13;20.60;99.40
8172;DHT22;4127;47.908;10.850;2023-09-19T10:53:46;20.30;99.90
8172;DHT22;4127;47.908;10.850;2023-09-19T10:56:34;20.10;99.90
8172;DHT22;4127;47.908;10.850;2023-09-19T10:59:09;20.10;99.90
8172;DHT22;4127;47.908;10.850;2023-09-19T11:01:54;20.40;99.90
8172;DHT22;4127;47.908;10.850;2023-09-19T11:07:08;20.40;99.90
8172;DHT22;4127;47.908;10.850;2023-09-19T11:09:48;20.20;99.90
8172;DHT22;4127;47.908;10.850;2023-09-19T11:14:58;20.20;99.90
8172;DHT22;4127;47.908;10.850;2023-09-19T11:17:35;20.10;99.90
8172;DHT22;4127;47.908;10.850;2023-09-19T11:30:37;20.10;99.90
8172;DHT22;4127;47.908;10.850;2023-09-19T11:33:30;19.90;99.90
8172;DHT22;4127;47.908;10.850;2023-09-19T11:43:53;19.50;99.90
8172;DHT22;4127;47.908;10.850;2023-09-19T11:46:24;19.50;99.90
8172;DHT22;4127;47.908;10.850;2023-09-19T11:48:52;19.60;99.90
8172;DHT22;4127;47.908;10.850;2023-09-19T11:51:20;19.60;99.90
8172;DHT22;4127;47.908;10.850;2023-09-19T11:53:56;19.70;99.90
8172;DHT22;4127;47.908;10.850;2023-09-19T11:56:25;20.20;99.90
8172;DHT22;4127;47.908;10.850;2023-09-19T11:58:55;20.40;99.90
8172;DHT22;4127;47.908;10.850;2023-09-19T12:01:33;20.40;99.90
8172;DHT22;4127;47.908;10.850;2023-09-19T12:04:02;20.40;99.90
8172;DHT22;4127;47.908;10.850;2023-09-19T12:06:31;20.40;99.90
8172;DHT22;4127;47.908;10.850;2023-09-19T12:09:03;20.40;99.90
8172;DHT22;4127;47.908;10.850;2023-09-19T12:11:41;20.50;99.90
8172;DHT22;4127;47.908;10.850;2023-09-19T12:14:11;20.30;99.90
8172;DHT22;4127;47.908;10.850;2023-09-19T12:16:38;20.40;99.90
8172;DHT22;4127;47.908;10.850;2023-09-19T12:19:18;20.60;99.90
8172;DHT22;4127;47.908;10.850;2023-09-19T12:21:58;20.50;99.80
8172;DHT22;4127;47.908;10.850;2023-09-19T12:24:27;20.60;99.90
8172;DHT22;4127;47.908;10.850;2023-09-19T12:27:06;20.70;99.90
8172;DHT22;4127;47.908;10.850;2023-09-19T12:29:43;20.40;99.90
8172;DHT22;4127;47.908;10.850;2023-09-19T12:32:11;20.30;99.90
8172;DHT22;4127;47.908;10.850;2023-09-19T12:34:39;20.20;99.90
8172;DHT22;4127;47.908;10.850;2023-09-19T12:37:15;20.40;99.90
8172;DHT22;4127;47.908;10.850;2023-09-19T12:39:49;20.40;99.90
8172;DHT22;4127;47.908;10.850;2023-09-19T12:42:21;20.40;99.90
8172;DHT22;4127;47.908;10.850;2023-09-19T12:44:50;20.30;99.90
8172;DHT22;4127;47.908;10.850;2023-09-19T12:47:24;20.40;99.90
8172;DHT22;4127;47.908;10.850;2023-09-19T12:52:56;20.60;99.90
8172;DHT22;4127;47.908;10.850;2023-09-19T12:55:29;20.50;99.90
8172;DHT22;4127;47.908;10.850;2023-09-19T12:58:09;20.50;99.90
8172;DHT22;4127;47.908;10.850;2023-09-19T13:00:43;20.70;99.90
8172;DHT22;4127;47.908;10.850;2023-09-19T13:08:29;20.80;99.90
8172;DHT22;4127;47.908;10.850;2023-09-19T13:13:39;20.50;99.90
8172;DHT22;4127;47.908;10.850;2023-09-19T13:16:07;20.40;99.70
8172;DHT22;4127;47.908;10.850;2023-09-19T13:18:48;20.30;99.40
8172;DHT22;4127;47.908;10.850;2023-09-19T13:21:31;20.30;99.90
8172;DHT22;4127;47.908;10.850;2023-09-19T13:24:23;20.30;99.90
8172;DHT22;4127;47.908;10.850;2023-09-19T13:26:53;20.50;99.90
8172;DHT22;4127;47.908;10.850;2023-09-19T13:29:20;20.60;99.90
8172;DHT22;4127;47.908;10.850;2023-09-19T13:31:48;20.50;99.90
8172;DHT22;4127;47.908;10.850;2023-09-19T13:34:16;20.70;99.90
8172;DHT22;4127;47.908;10.850;2023-09-19T13:36:44;20.90;99.40
8172;DHT22;4127;47.908;10.850;2023-09-19T13:39:11;20.90;99.90
8172;DHT22;4127;47.908;10.850;2023-09-19T13:41:45;20.90;99.40
8172;DHT22;4127;47.908;10.850;2023-09-19T13:44:14;20.80;99.50
8172;DHT22;4127;47.908;10.850;2023-09-19T13:46:41;21.00;99.30
8172;DHT22;4127;47.908;10.850;2023-09-19T13:49:13;21.20;99.60
8172;DHT22;4127;47.908;10.850;2023-09-19T13:51:40;21.20;98.50
8172;DHT22;4127;47.908;10.850;2023-09-19T13:54:11;21.20;98.30
8172;DHT22;4127;47.908;10.850;2023-09-19T13:56:41;21.20;98.10
8172;DHT22;4127;47.908;10.850;2023-09-19T13:59:08;21.00;99.10
8172;DHT22;4127;47.908;10.850;2023-09-19T14:01:35;21.10;98.00
8172;DHT22;4127;47.908;10.850;2023-09-19T14:04:01;20.70;98.60
8172;DHT22;4127;47.908;10.850;2023-09-19T14:06:29;20.70;98.40
8172;DHT22;4127;47.908;10.850;2023-09-19T14:08:56;20.70;98.90
8172;DHT22;4127;47.908;10.850;2023-09-19T14:11:23;21.00;97.90
8172;DHT22;4127;47.908;10.850;2023-09-19T14:13:50;20.90;98.30
8172;DHT22;4127;47.908;10.850;2023-09-19T14:16:22;20.90;98.00
8172;DHT22;4127;47.908;10.850;2023-09-19T14:18:51;21.00;98.50
8172;DHT22;4127;47.908;10.850;2023-09-19T14:21:19;21.10;98.70
8172;DHT22;4127;47.908;10.850;2023-09-19T14:23:46;21.10;98.50
8172;DHT22;4127;47.908;10.850;2023-09-19T14:26:13;21.20;98.30
8172;DHT22;4127;47.908;10.850;2023-09-19T14:28:40;21.20;98.20
8172;DHT22;4127;47.908;10.850;2023-09-19T14:31:08;21.00;97.90
8172;DHT22;4127;47.908;10.850;2023-09-19T14:33:36;21.00;98.30
8172;DHT22;4127;47.908;10.850;2023-09-19T14:36:07;21.10;98.20
8172;DHT22;4127;47.908;10.850;2023-09-19T14:38:37;21.20;98.40
8172;DHT22;4127;47.908;10.850;2023-09-19T14:41:05;21.20;97.90
8172;DHT22;4127;47.908;10.850;2023-09-19T14:43:33;21.00;97.60
8172;DHT22;4127;47.908;10.850;2023-09-19T14:46:06;21.00;97.60
8172;DHT22;4127;47.908;10.850;2023-09-19T14:48:37;21.10;97.40
8172;DHT22;4127;47.908;10.850;2023-09-19T14:51:06;21.10;97.10
8172;DHT22;4127;47.908;10.850;2023-09-19T14:53:35;21.10;96.50
8172;DHT22;4127;47.908;10.850;2023-09-19T14:56:07;21.00;96.10
8172;DHT22;4127;47.908;10.850;2023-09-19T14:58:35;20.90;96.20
8172;DHT22;4127;47.908;10.850;2023-09-19T15:01:06;21.00;96.70
8172;DHT22;4127;47.908;10.850;2023-09-19T15:03:34;21.00;96.00
8172;DHT22;4127;47.908;10.850;2023-09-19T15:06:07;20.90;96.80
8172;DHT22;4127;47.908;10.850;2023-09-19T15:08:36;20.90;96.50
8172;DHT22;4127;47.908;10.850;2023-09-19T15:11:05;21.00;97.20
8172;DHT22;4127;47.908;10.850;2023-09-19T15:13:34;20.90;96.40
8172;DHT22;4127;47.908;10.850;2023-09-19T15:16:06;20.90;96.50
8172;DHT22;4127;47.908;10.850;2023-09-19T15:18:37;20.90;96.40
8172;DHT22;4127;47.908;10.850;2023-09-19T15:21:05;20.70;96.00
8172;DHT22;4127;47.908;10.850;2023-09-19T15:23:33;20.60;96.60
8172;DHT22;4127;47.908;10.850;2023-09-19T15:26:01;20.60;96.80
8172;DHT22;4127;47.908;10.850;2023-09-19T15:28:28;20.60;97.10
8172;DHT22;4127;47.908;10.850;2023-09-19T15:31:04;20.50;97.10
8172;DHT22;4127;47.908;10.850;2023-09-19T15:33:31;20.40;97.30
8172;DHT22;4127;47.908;10.850;2023-09-19T15:39:01;20.50;97.60
8172;DHT22;4127;47.908;10.850;2023-09-19T15:41:30;20.50;98.40
8172;DHT22;4127;47.908;10.850;2023-09-19T15:43:59;20.60;98.10
8172;DHT22;4127;47.908;10.850;2023-09-19T15:46:32;20.50;97.60
8172;DHT22;4127;47.908;10.850;2023-09-19T15:49:04;20.40;98.40
8172;DHT22;4127;47.908;10.850;2023-09-19T15:51:31;20.30;98.20
8172;DHT22;4127;47.908;10.850;2023-09-19T15:53:58;20.20;98.10
8172;DHT22;4127;47.908;10.850;2023-09-19T15:56:27;20.20;98.40
8172;DHT22;4127;47.908;10.850;2023-09-19T15:58:55;20.30;98.40
8172;DHT22;4127;47.908;10.850;2023-09-19T16:01:23;20.20;98.00
8172;DHT22;4127;47.908;10.850;2023-09-19T16:03:52;20.20;98.10
8172;DHT22;4127;47.908;10.850;2023-09-19T16:06:20;20.10;98.30
8172;DHT22;4127;47.908;10.850;2023-09-19T16:08:51;20.10;98.70
8172;DHT22;4127;47.908;10.850;2023-09-19T16:11:19;20.00;98.60
8172;DHT22;4127;47.908;10.850;2023-09-19T16:13:50;20.00;98.40
8172;DHT22;4127;47.908;10.850;2023-09-19T16:16:19;20.00;98.90
8172;DHT22;4127;47.908;10.850;2023-09-19T16:18:50;19.90;98.90
8172;DHT22;4127;47.908;10.850;2023-09-19T16:21:18;19.90;99.50
8172;DHT22;4127;47.908;10.850;2023-09-19T16:23:49;19.90;99.90
8172;DHT22;4127;47.908;10.850;2023-09-19T16:26:17;19.80;99.90
8172;DHT22;4127;47.908;10.850;2023-09-19T16:28:49;19.80;99.90
8172;DHT22;4127;47.908;10.850;2023-09-19T16:31:16;19.70;99.90
8172;DHT22;4127;47.908;10.850;2023-09-19T16:33:45;19.60;99.90
8172;DHT22;4127;47.908;10.850;2023-09-19T16:36:17;19.40;99.90
8172;DHT22;4127;47.908;10.850;2023-09-19T16:38:45;19.40;99.90
8172;DHT22;4127;47.908;10.850;2023-09-19T16:41:14;19.40;99.90
8172;DHT22;4127;47.908;10.850;2023-09-19T16:43:43;19.30;99.90
8172;DHT22;4127;47.908;10.850;2023-09-19T16:46:11;19.20;99.90
8172;DHT22;4127;47.908;10.850;2023-09-19T16:48:40;19.10;99.90
8172;DHT22;4127;47.908;10.850;2023-09-19T16:51:26;19.00;99.90
8172;DHT22;4127;47.908;10.850;2023-09-19T16:53:56;19.00;99.90
8172;DHT22;4127;47.908;10.850;2023-09-19T16:56:23;18.90;99.90
8172;DHT22;4127;47.908;10.850;2023-09-19T16:58:51;18.90;99.90
8172;DHT22;4127;47.908;10.850;2023-09-19T17:01:19;18.90;99.90